sensor_id;sensor_type;location;lat;lon;timestamp;temperature;humidity
7762;DHT22;3925;48.636;9.516;2022-11-15T00:01:18;12.50;99.90
7762;DHT22;3925;48.636;9.516;2022-11-15T00:03:45;12.50;99.90
7762;DHT22;3925;48.636;9.516;2022-11-15T00:06:12;12.60;99.90
7762;DHT22;3925;48.636;9.516;2022-11-15T00:08:39;12.60;99.90
7762;DHT22;3925;48.636;9.516;2022-11-15T00:11:06;12.60;99.90
7762;DHT22;3925;48.636;9.516;2022-11-15T00:13:33;12.60;99.90
7762;DHT22;3925;48.636;9.516;2022-11-15T00:16:00;12.70;99.90
7762;DHT22;3925;48.636;9.516;2022-11-15T00:18:30;12.70;99.90
7762;DHT22;3925;48.636;9.516;2022-11-15T00:21:03;12.80;99.90
7762;DHT22;3925;48.636;9.516;2022-11-15T00:23:30;12.80;99.90
7762;DHT22;3925;48.636;9.516;2022-11-15T00:25:58;12.70;99.90
7762;DHT22;3925;48.636;9.516;2022-11-15T00:28:25;12.70;99.90
7762;DHT22;3925;48.636;9.516;2022-11-15T00:30:52;12.60;99.90
7762;DHT22;3925;48.636;9.516;2022-11-15T00:33:19;12.60;99.90
7762;DHT22;3925;48.636;9.516;2022-11-15T00:35:47;12.70;99.90
7762;DHT22;3925;48.636;9.516;2022-11-15T00:38:14;12.60;99.90
7762;DHT22;3925;48.636;9.516;2022-11-15T00:40:41;12.60;99.90
7762;DHT22;3925;48.636;9.516;2022-11-15T00:43:08;12.60;99.90
7762;DHT22;3925;48.636;9.516;2022-11-15T00:45:35;12.60;99.90
7762;DHT22;3925;48.636;9.516;2022-11-15T00:48:02;12.60;99.90
7762;DHT22;3925;48.636;9.516;2022-11-15T00:50:29;12.60;99.90
7762;DHT22;3925;48.636;9.516;2022-11-15T00:52:57;12.50;99.90
7762;DHT22;3925;48.636;9.516;2022-11-15T00:55:24;12.50;99.90
7762;DHT22;3925;48.636;9.516;2022-11-15T00:57:51;12.40;99.90
7762;DHT22;3925;48.636;9.516;2022-11-15T01:00:18;12.40;99.90
7762;DHT22;3925;48.636;9.516;2022-11-15T01:02:45;12.10;99.90
7762;DHT22;3925;48.636;9.516;2022-11-15T01:05:12;12.00;99.90
7762;DHT22;3925;48.636;9.516;2022-11-15T01:07:39;11.70;99.90
7762;DHT22;3925;48.636;9.516;2022-11-15T01:10:08;11.50;99.90
7762;DHT22;3925;48.636;9.516;2022-11-15T01:12:35;11.40;99.90
7762;DHT22;3925;48.636;9.516;2022-11-15T01:15:03;11.40;99.90
7762;DHT22;3925;48.636;9.516;2022-11-15T01:17:30;11.10;99.90
7762;DHT22;3925;48.636;9.516;2022-11-15T01:19:57;10.90;99.90
7762;DHT22;3925;48.636;9.516;2022-11-15T01:22:24;10.80;99.90
7762;DHT22;3925;48.636;9.516;2022-11-15T01:24:51;10.70;99.90
7762;DHT22;3925;48.636;9.516;2022-11-15T01:27:20;10.70;99.90
7762;DHT22;3925;48.636;9.516;2022-11-15T01:29:47;10.50;99.90
7762;DHT22;3925;48.636;9.516;2022-11-15T01:32:14;10.40;99.90
7762;DHT22;3925;48.636;9.516;2022-11-15T01:34:40;10.40;99.90
7762;DHT22;3925;48.636;9.516;2022-11-15T01:37:07;10.30;99.90
7762;DHT22;3925;48.636;9.516;2022-11-15T01:39:34;10.20;99.90
7762;DHT22;3925;48.636;9.516;2022-11-15T01:42:01;10.40;99.90
7762;DHT22;3925;48.636;9.516;2022-11-15T01:44:40;10.10;99.90
7762;DHT22;3925;48.636;9.516;2022-11-15T01:47:11;10.00;99.90
7762;DHT22;3925;48.636;9.516;2022-11-15T01:49:45;10.00;99.90
7762;DHT22;3925;48.636;9.516;2022-11-15T01:52:18;9.90;99.90
7762;DHT22;3925;48.636;9.516;2022-11-15T01:54:46;9.80;99.90
7762;DHT22;3925;48.636;9.516;2022-11-15T01:57:13;9.80;99.90
7762;DHT22;3925;48.636;9.516;2022-11-15T01:59:43;9.80;99.90
7762;DHT22;3925;48.636;9.516;2022-11-15T02:02:12;9.70;99.90
7762;DHT22;3925;48.636;9.516;2022-11-15T02:04:41;9.80;99.90
7762;DHT22;3925;48.636;9.516;2022-11-15T02:07:10;9.50;99.90
7762;DHT22;3925;48.636;9.516;2022-11-15T02:09:38;9.50;99.90
7762;DHT22;3925;48.636;9.516;2022-11-15T02:12:06;9.40;99.90
7762;DHT22;3925;48.636;9.516;2022-11-15T02:14:34;9.50;99.90
7762;DHT22;3925;48.636;9.516;2022-11-15T02:17:11;9.50;99.90
7762;DHT22;3925;48.636;9.516;2022-11-15T02:26:25;9.30;99.90
7762;DHT22;3925;48.636;9.516;2022-11-15T02:29:01;9.30;99.90
7762;DHT22;3925;48.636;9.516;2022-11-15T02:31:36;9.40;99.90
7762;DHT22;3925;48.636;9.516;2022-11-15T02:34:16;9.30;99.90
7762;DHT22;3925;48.636;9.516;2022-11-15T02:36:54;9.50;99.90
7762;DHT22;3925;48.636;9.516;2022-11-15T02:39:28;9.20;99.90
7762;DHT22;3925;48.636;9.516;2022-11-15T02:42:02;9.40;99.90
7762;DHT22;3925;48.636;9.516;2022-11-15T02:44:51;9.20;99.90
7762;DHT22;3925;48.636;9.516;2022-11-15T02:47:21;9.00;99.90
7762;DHT22;3925;48.636;9.516;2022-11-15T02:49:52;9.10;99.90
7762;DHT22;3925;48.636;9.516;2022-11-15T02:52:21;9.10;99.90
7762;DHT22;3925;48.636;9.516;2022-11-15T02:54:53;9.20;99.90
7762;DHT22;3925;48.636;9.516;2022-11-15T02:57:30;9.30;99.90
7762;DHT22;3925;48.636;9.516;2022-11-15T03:00:06;9.20;99.90
7762;DHT22;3925;48.636;9.516;2022-11-15T03:03:07;9.30;99.90
7762;DHT22;3925;48.636;9.516;2022-11-15T03:05:46;9.30;99.90
7762;DHT22;3925;48.636;9.516;2022-11-15T03:08:21;9.30;99.90
7762;DHT22;3925;48.636;9.516;2022-11-15T03:10:55;9.40;99.90
7762;DHT22;3925;48.636;9.516;2022-11-15T03:13:27;9.30;99.90
7762;DHT22;3925;48.636;9.516;2022-11-15T03:16:01;9.50;99.90
7762;DHT22;3925;48.636;9.516;2022-11-15T03:18:33;9.50;99.90
7762;DHT22;3925;48.636;9.516;2022-11-15T03:21:05;9.50;99.90
7762;DHT22;3925;48.636;9.516;2022-11-15T03:23:34;9.20;99.90
7762;DHT22;3925;48.636;9.516;2022-11-15T03:26:06;9.20;99.90
7762;DHT22;3925;48.636;9.516;2022-11-15T03:28:36;9.20;99.90
7762;DHT22;3925;48.636;9.516;2022-11-15T03:31:04;9.10;99.90
7762;DHT22;3925;48.636;9.516;2022-11-15T03:33:55;9.00;99.90
7762;DHT22;3925;48.636;9.516;2022-11-15T03:36:24;9.10;99.90
7762;DHT22;3925;48.636;9.516;2022-11-15T03:38:54;9.20;99.90
7762;DHT22;3925;48.636;9.516;2022-11-15T03:41:26;9.10;99.90
7762;DHT22;3925;48.636;9.516;2022-11-15T03:43:57;9.00;99.90
7762;DHT22;3925;48.636;9.516;2022-11-15T03:46:28;9.00;99.90
7762;DHT22;3925;48.636;9.516;2022-11-15T03:49:05;9.10;99.90
7762;DHT22;3925;48.636;9.516;2022-11-15T03:51:33;9.10;99.90
7762;DHT22;3925;48.636;9.516;2022-11-15T03:54:02;9.10;99.90
7762;DHT22;3925;48.636;9.516;2022-11-15T03:56:29;9.00;99.90
7762;DHT22;3925;48.636;9.516;2022-11-15T03:58:56;9.30;99.90
7762;DHT22;3925;48.636;9.516;2022-11-15T04:01:23;9.30;99.90
7762;DHT22;3925;48.636;9.516;2022-11-15T04:03:50;9.00;99.90
7762;DHT22;3925;48.636;9.516;2022-11-15T04:06:18;9.20;99.90
7762;DHT22;3925;48.636;9.516;2022-11-15T04:08:45;9.30;99.90
7762;DHT22;3925;48.636;9.516;2022-11-15T04:11:12;9.40;99.90
7762;DHT22;3925;48.636;9.516;2022-11-15T04:13:39;9.30;99.90
7762;DHT22;3925;48.636;9.516;2022-11-15T04:16:06;9.50;99.90
7762;DHT22;3925;48.636;9.516;2022-11-15T04:18:33;9.50;99.90
7762;DHT22;3925;48.636;9.516;2022-11-15T04:21:00;9.30;99.90
7762;DHT22;3925;48.636;9.516;2022-11-15T04:23:45;9.40;99.90
7762;DHT22;3925;48.636;9.516;2022-11-15T04:26:26;9.70;99.90
7762;DHT22;3925;48.636;9.516;2022-11-15T04:28:54;9.70;99.90
7762;DHT22;3925;48.636;9.516;2022-11-15T04:31:39;9.80;99.90
7762;DHT22;3925;48.636;9.516;2022-11-15T04:34:05;9.80;99.90
7762;DHT22;3925;48.636;9.516;2022-11-15T04:36:32;10.00;99.90
7762;DHT22;3925;48.636;9.516;2022-11-15T04:39:18;10.10;99.90
7762;DHT22;3925;48.636;9.516;2022-11-15T04:41:45;10.10;99.90
7762;DHT22;3925;48.636;9.516;2022-11-15T04:44:12;10.00;99.90
7762;DHT22;3925;48.636;9.516;2022-11-15T04:46:39;10.00;99.90
7762;DHT22;3925;48.636;9.516;2022-11-15T04:49:06;10.00;99.90
7762;DHT22;3925;48.636;9.516;2022-11-15T04:51:32;10.00;99.90
7762;DHT22;3925;48.636;9.516;2022-11-15T04:53:59;9.90;99.90
7762;DHT22;3925;48.636;9.516;2022-11-15T04:56:27;9.80;99.90
7762;DHT22;3925;48.636;9.516;2022-11-15T04:58:54;9.70;99.90
7762;DHT22;3925;48.636;9.516;2022-11-15T05:01:21;9.60;99.90
7762;DHT22;3925;48.636;9.516;2022-11-15T05:03:48;9.40;99.90
7762;DHT22;3925;48.636;9.516;2022-11-15T05:06:32;9.50;99.90
7762;DHT22;3925;48.636;9.516;2022-11-15T05:08:59;9.60;99.90
7762;DHT22;3925;48.636;9.516;2022-11-15T05:11:27;9.60;99.90
7762;DHT22;3925;48.636;9.516;2022-11-15T05:13:54;9.60;99.90
7762;DHT22;3925;48.636;9.516;2022-11-15T05:16:21;9.50;99.90
7762;DHT22;3925;48.636;9.516;2022-11-15T05:18:50;9.50;99.90
7762;DHT22;3925;48.636;9.516;2022-11-15T05:21:17;9.50;99.90
7762;DHT22;3925;48.636;9.516;2022-11-15T05:23:44;9.50;99.90
7762;DHT22;3925;48.636;9.516;2022-11-15T05:26:11;9.20;99.90
7762;DHT22;3925;48.636;9.516;2022-11-15T05:28:40;8.80;99.90
7762;DHT22;3925;48.636;9.516;2022-11-15T05:31:08;8.90;99.90
7762;DHT22;3925;48.636;9.516;2022-11-15T05:33:36;8.90;99.90
7762;DHT22;3925;48.636;9.516;2022-11-15T05:36:06;8.70;99.90
7762;DHT22;3925;48.636;9.516;2022-11-15T05:38:34;8.70;99.90
7762;DHT22;3925;48.636;9.516;2022-11-15T05:41:02;8.70;99.90
7762;DHT22;3925;48.636;9.516;2022-11-15T05:43:31;8.30;99.90
7762;DHT22;3925;48.636;9.516;2022-11-15T05:46:02;8.20;99.90
7762;DHT22;3925;48.636;9.516;2022-11-15T05:48:31;8.30;99.90
7762;DHT22;3925;48.636;9.516;2022-11-15T05:50:58;8.40;99.90
7762;DHT22;3925;48.636;9.516;2022-11-15T05:53:26;8.40;99.90
7762;DHT22;3925;48.636;9.516;2022-11-15T05:55:53;8.40;99.90
7762;DHT22;3925;48.636;9.516;2022-11-15T05:58:20;8.30;99.90
7762;DHT22;3925;48.636;9.516;2022-11-15T06:00:47;8.30;99.90
7762;DHT22;3925;48.636;9.516;2022-11-15T06:03:16;8.10;99.90
7762;DHT22;3925;48.636;9.516;2022-11-15T06:05:43;8.40;99.90
7762;DHT22;3925;48.636;9.516;2022-11-15T06:08:09;8.40;99.90
7762;DHT22;3925;48.636;9.516;2022-11-15T06:10:37;8.40;99.90
7762;DHT22;3925;48.636;9.516;2022-11-15T06:13:04;8.30;99.90
7762;DHT22;3925;48.636;9.516;2022-11-15T06:15:32;8.40;99.90
7762;DHT22;3925;48.636;9.516;2022-11-15T06:17:58;8.30;99.90
7762;DHT22;3925;48.636;9.516;2022-11-15T06:20:28;7.90;99.90
7762;DHT22;3925;48.636;9.516;2022-11-15T06:23:01;7.80;99.90
7762;DHT22;3925;48.636;9.516;2022-11-15T06:25:29;7.90;99.90
7762;DHT22;3925;48.636;9.516;2022-11-15T06:27:57;7.90;99.90
7762;DHT22;3925;48.636;9.516;2022-11-15T06:30:26;7.70;99.90
7762;DHT22;3925;48.636;9.516;2022-11-15T06:32:59;7.70;99.90
7762;DHT22;3925;48.636;9.516;2022-11-15T06:35:28;7.60;99.90
7762;DHT22;3925;48.636;9.516;2022-11-15T06:38:03;7.30;99.90
7762;DHT22;3925;48.636;9.516;2022-11-15T06:40:30;7.30;99.90
7762;DHT22;3925;48.636;9.516;2022-11-15T06:42:59;7.40;99.90
7762;DHT22;3925;48.636;9.516;2022-11-15T06:45:30;7.20;99.90
7762;DHT22;3925;48.636;9.516;2022-11-15T06:47:58;7.20;99.90
7762;DHT22;3925;48.636;9.516;2022-11-15T06:50:25;7.40;99.90
7762;DHT22;3925;48.636;9.516;2022-11-15T06:52:54;7.50;99.90
7762;DHT22;3925;48.636;9.516;2022-11-15T06:55:21;7.60;99.90
7762;DHT22;3925;48.636;9.516;2022-11-15T06:57:48;7.60;99.90
7762;DHT22;3925;48.636;9.516;2022-11-15T07:00:17;7.80;99.90
7762;DHT22;3925;48.636;9.516;2022-11-15T07:02:44;8.00;99.90
7762;DHT22;3925;48.636;9.516;2022-11-15T07:05:11;8.00;99.90
7762;DHT22;3925;48.636;9.516;2022-11-15T07:07:41;8.10;99.90
7762;DHT22;3925;48.636;9.516;2022-11-15T07:10:10;8.30;99.90
7762;DHT22;3925;48.636;9.516;2022-11-15T07:12:37;8.40;99.90
7762;DHT22;3925;48.636;9.516;2022-11-15T07:15:05;8.50;99.90
7762;DHT22;3925;48.636;9.516;2022-11-15T07:17:32;8.50;99.90
7762;DHT22;3925;48.636;9.516;2022-11-15T07:19:59;8.40;99.90
7762;DHT22;3925;48.636;9.516;2022-11-15T07:22:26;8.60;99.90
7762;DHT22;3925;48.636;9.516;2022-11-15T07:24:52;8.70;99.90
7762;DHT22;3925;48.636;9.516;2022-11-15T07:27:21;8.80;99.90
7762;DHT22;3925;48.636;9.516;2022-11-15T07:29:48;8.80;99.90
7762;DHT22;3925;48.636;9.516;2022-11-15T07:32:15;9.10;99.90
7762;DHT22;3925;48.636;9.516;2022-11-15T07:34:42;9.30;99.90
7762;DHT22;3925;48.636;9.516;2022-11-15T07:37:10;9.40;99.90
7762;DHT22;3925;48.636;9.516;2022-11-15T07:39:37;9.40;99.90
7762;DHT22;3925;48.636;9.516;2022-11-15T07:42:04;9.50;99.90
7762;DHT22;3925;48.636;9.516;2022-11-15T07:44:50;9.70;99.90
7762;DHT22;3925;48.636;9.516;2022-11-15T07:47:17;10.00;99.90
7762;DHT22;3925;48.636;9.516;2022-11-15T07:49:44;10.30;99.90
7762;DHT22;3925;48.636;9.516;2022-11-15T07:52:11;10.30;99.90
7762;DHT22;3925;48.636;9.516;2022-11-15T07:54:38;10.60;99.90
7762;DHT22;3925;48.636;9.516;2022-11-15T07:57:05;10.90;99.90
7762;DHT22;3925;48.636;9.516;2022-11-15T07:59:37;11.20;99.90
7762;DHT22;3925;48.636;9.516;2022-11-15T08:02:05;11.40;99.90
7762;DHT22;3925;48.636;9.516;2022-11-15T08:04:32;11.20;99.90
7762;DHT22;3925;48.636;9.516;2022-11-15T08:06:59;11.10;99.90
7762;DHT22;3925;48.636;9.516;2022-11-15T08:09:26;11.10;99.90
7762;DHT22;3925;48.636;9.516;2022-11-15T08:11:53;10.90;99.90
7762;DHT22;3925;48.636;9.516;2022-11-15T08:14:20;11.00;99.90
7762;DHT22;3925;48.636;9.516;2022-11-15T08:16:47;11.20;99.90
7762;DHT22;3925;48.636;9.516;2022-11-15T08:19:16;11.30;99.90
7762;DHT22;3925;48.636;9.516;2022-11-15T08:21:43;11.40;99.90
7762;DHT22;3925;48.636;9.516;2022-11-15T08:24:10;11.70;99.90
7762;DHT22;3925;48.636;9.516;2022-11-15T08:26:37;11.80;99.90
7762;DHT22;3925;48.636;9.516;2022-11-15T08:29:05;12.30;99.90
7762;DHT22;3925;48.636;9.516;2022-11-15T08:31:33;12.80;99.90
7762;DHT22;3925;48.636;9.516;2022-11-15T08:34:00;13.70;99.90
7762;DHT22;3925;48.636;9.516;2022-11-15T08:36:29;14.90;99.90
7762;DHT22;3925;48.636;9.516;2022-11-15T08:38:56;15.70;99.90
7762;DHT22;3925;48.636;9.516;2022-11-15T08:41:26;16.10;99.90
7762;DHT22;3925;48.636;9.516;2022-11-15T08:43:54;16.10;99.90
7762;DHT22;3925;48.636;9.516;2022-11-15T08:46:21;15.90;99.90
7762;DHT22;3925;48.636;9.516;2022-11-15T08:48:48;15.80;99.90
7762;DHT22;3925;48.636;9.516;2022-11-15T08:51:18;15.70;99.90
7762;DHT22;3925;48.636;9.516;2022-11-15T08:53:47;15.30;99.90
7762;DHT22;3925;48.636;9.516;2022-11-15T08:56:14;14.70;99.90
7762;DHT22;3925;48.636;9.516;2022-11-15T08:58:41;14.50;99.90
7762;DHT22;3925;48.636;9.516;2022-11-15T09:01:16;14.60;99.90
7762;DHT22;3925;48.636;9.516;2022-11-15T09:03:43;14.20;99.90
7762;DHT22;3925;48.636;9.516;2022-11-15T09:06:10;14.50;99.90
7762;DHT22;3925;48.636;9.516;2022-11-15T09:08:37;14.50;99.90
7762;DHT22;3925;48.636;9.516;2022-11-15T09:11:06;14.10;99.90
7762;DHT22;3925;48.636;9.516;2022-11-15T09:13:33;14.30;99.90
7762;DHT22;3925;48.636;9.516;2022-11-15T09:16:03;14.90;99.90
7762;DHT22;3925;48.636;9.516;2022-11-15T09:18:30;15.40;99.90
7762;DHT22;3925;48.636;9.516;2022-11-15T09:20:57;16.30;99.90
7762;DHT22;3925;48.636;9.516;2022-11-15T09:23:25;17.90;99.90
7762;DHT22;3925;48.636;9.516;2022-11-15T09:25:52;19.30;99.90
7762;DHT22;3925;48.636;9.516;2022-11-15T09:28:20;20.00;99.20
7762;DHT22;3925;48.636;9.516;2022-11-15T09:30:47;20.70;97.00
7762;DHT22;3925;48.636;9.516;2022-11-15T09:33:14;20.30;96.10
7762;DHT22;3925;48.636;9.516;2022-11-15T09:35:41;20.20;96.10
7762;DHT22;3925;48.636;9.516;2022-11-15T09:38:08;20.10;95.90
7762;DHT22;3925;48.636;9.516;2022-11-15T09:40:36;19.60;96.30
7762;DHT22;3925;48.636;9.516;2022-11-15T09:43:26;19.10;97.80
7762;DHT22;3925;48.636;9.516;2022-11-15T09:46:04;18.70;98.30
7762;DHT22;3925;48.636;9.516;2022-11-15T09:48:50;18.30;98.60
7762;DHT22;3925;48.636;9.516;2022-11-15T09:51:25;18.00;99.90
7762;DHT22;3925;48.636;9.516;2022-11-15T09:54:00;17.50;99.90
7762;DHT22;3925;48.636;9.516;2022-11-15T09:56:30;17.40;99.90
7762;DHT22;3925;48.636;9.516;2022-11-15T10:01:52;17.30;99.90
7762;DHT22;3925;48.636;9.516;2022-11-15T10:04:22;16.90;99.90
7762;DHT22;3925;48.636;9.516;2022-11-15T10:06:54;17.00;99.90
7762;DHT22;3925;48.636;9.516;2022-11-15T10:09:25;17.20;99.90
7762;DHT22;3925;48.636;9.516;2022-11-15T10:11:55;17.60;99.90
7762;DHT22;3925;48.636;9.516;2022-11-15T10:14:25;18.20;99.90
7762;DHT22;3925;48.636;9.516;2022-11-15T10:19:54;19.30;98.80
7762;DHT22;3925;48.636;9.516;2022-11-15T10:22:28;19.40;99.50
7762;DHT22;3925;48.636;9.516;2022-11-15T10:25:15;19.30;99.20
7762;DHT22;3925;48.636;9.516;2022-11-15T10:27:44;19.20;99.80
7762;DHT22;3925;48.636;9.516;2022-11-15T10:30:17;19.30;99.90
7762;DHT22;3925;48.636;9.516;2022-11-15T10:32:46;19.40;99.50
7762;DHT22;3925;48.636;9.516;2022-11-15T10:35:19;19.50;99.50
7762;DHT22;3925;48.636;9.516;2022-11-15T10:37:47;19.60;98.30
7762;DHT22;3925;48.636;9.516;2022-11-15T10:40:20;19.40;97.90
7762;DHT22;3925;48.636;9.516;2022-11-15T10:42:47;19.90;96.90
7762;DHT22;3925;48.636;9.516;2022-11-15T10:45:31;19.80;96.60
7762;DHT22;3925;48.636;9.516;2022-11-15T10:48:20;20.50;96.30
7762;DHT22;3925;48.636;9.516;2022-11-15T10:50:48;20.90;94.70
7762;DHT22;3925;48.636;9.516;2022-11-15T10:53:21;20.90;95.10
7762;DHT22;3925;48.636;9.516;2022-11-15T10:55:51;20.70;95.20
7762;DHT22;3925;48.636;9.516;2022-11-15T10:58:26;20.80;95.10
7762;DHT22;3925;48.636;9.516;2022-11-15T11:01:09;20.90;94.80
7762;DHT22;3925;48.636;9.516;2022-11-15T11:03:37;20.90;94.40
7762;DHT22;3925;48.636;9.516;2022-11-15T11:06:08;20.40;95.10
7762;DHT22;3925;48.636;9.516;2022-11-15T11:08:35;20.10;94.90
7762;DHT22;3925;48.636;9.516;2022-11-15T11:11:03;19.90;95.90
7762;DHT22;3925;48.636;9.516;2022-11-15T11:13:32;19.80;95.90
7762;DHT22;3925;48.636;9.516;2022-11-15T11:16:21;19.70;98.30
7762;DHT22;3925;48.636;9.516;2022-11-15T11:18:56;19.60;98.80
7762;DHT22;3925;48.636;9.516;2022-11-15T11:21:34;19.60;99.70
7762;DHT22;3925;48.636;9.516;2022-11-15T11:24:08;19.60;99.60
7762;DHT22;3925;48.636;9.516;2022-11-15T11:26:44;19.40;99.00
7762;DHT22;3925;48.636;9.516;2022-11-15T11:29:30;19.30;99.90
7762;DHT22;3925;48.636;9.516;2022-11-15T11:32:22;19.00;99.40
7762;DHT22;3925;48.636;9.516;2022-11-15T11:34:57;18.60;99.50
7762;DHT22;3925;48.636;9.516;2022-11-15T11:37:30;18.30;99.90
7762;DHT22;3925;48.636;9.516;2022-11-15T11:40:12;18.20;99.90
7762;DHT22;3925;48.636;9.516;2022-11-15T11:42:47;18.10;99.90
7762;DHT22;3925;48.636;9.516;2022-11-15T11:45:24;18.00;99.90
7762;DHT22;3925;48.636;9.516;2022-11-15T11:48:00;17.90;99.90
7762;DHT22;3925;48.636;9.516;2022-11-15T11:50:30;17.80;99.90
7762;DHT22;3925;48.636;9.516;2022-11-15T11:53:01;17.70;99.90
7762;DHT22;3925;48.636;9.516;2022-11-15T11:55:33;17.50;99.90
7762;DHT22;3925;48.636;9.516;2022-11-15T11:58:10;17.40;99.90
7762;DHT22;3925;48.636;9.516;2022-11-15T12:00:42;17.30;99.90
7762;DHT22;3925;48.636;9.516;2022-11-15T12:03:16;17.20;99.90
7762;DHT22;3925;48.636;9.516;2022-11-15T12:05:50;17.10;99.90
7762;DHT22;3925;48.636;9.516;2022-11-15T12:08:27;17.20;99.90
7762;DHT22;3925;48.636;9.516;2022-11-15T12:11:01;17.10;99.90
7762;DHT22;3925;48.636;9.516;2022-11-15T12:13:31;16.90;99.90
7762;DHT22;3925;48.636;9.516;2022-11-15T12:16:06;16.60;99.90
7762;DHT22;3925;48.636;9.516;2022-11-15T12:18:35;16.80;99.90
7762;DHT22;3925;48.636;9.516;2022-11-15T12:21:07;16.70;99.90
7762;DHT22;3925;48.636;9.516;2022-11-15T12:23:44;16.70;99.90
7762;DHT22;3925;48.636;9.516;2022-11-15T12:26:18;16.80;99.90
7762;DHT22;3925;48.636;9.516;2022-11-15T12:28:49;16.80;99.90
7762;DHT22;3925;48.636;9.516;2022-11-15T12:31:22;16.60;99.90
7762;DHT22;3925;48.636;9.516;2022-11-15T12:33:55;16.70;99.90
7762;DHT22;3925;48.636;9.516;2022-11-15T12:36:38;16.70;99.90
7762;DHT22;3925;48.636;9.516;2022-11-15T12:39:06;16.70;99.90
7762;DHT22;3925;48.636;9.516;2022-11-15T12:41:35;16.60;99.90
7762;DHT22;3925;48.636;9.516;2022-11-15T12:44:04;16.60;99.90
7762;DHT22;3925;48.636;9.516;2022-11-15T12:47:00;16.50;99.90
7762;DHT22;3925;48.636;9.516;2022-11-15T12:49:46;16.60;99.90
7762;DHT22;3925;48.636;9.516;2022-11-15T12:52:13;16.60;99.90
7762;DHT22;3925;48.636;9.516;2022-11-15T12:57:55;16.50;99.90
7762;DHT22;3925;48.636;9.516;2022-11-15T13:00:42;16.30;99.90
7762;DHT22;3925;48.636;9.516;2022-11-15T13:03:21;16.40;99.90
7762;DHT22;3925;48.636;9.516;2022-11-15T13:06:06;16.40;99.90
7762;DHT22;3925;48.636;9.516;2022-11-15T13:08:49;16.40;99.90
7762;DHT22;3925;48.636;9.516;2022-11-15T13:11:41;16.30;99.90
7762;DHT22;3925;48.636;9.516;2022-11-15T13:20:19;16.00;99.90
7762;DHT22;3925;48.636;9.516;2022-11-15T13:22:49;16.00;99.90
7762;DHT22;3925;48.636;9.516;2022-11-15T13:28:22;15.90;99.90
7762;DHT22;3925;48.636;9.516;2022-11-15T13:30:53;15.90;99.90
7762;DHT22;3925;48.636;9.516;2022-11-15T13:33:22;15.80;99.90
7762;DHT22;3925;48.636;9.516;2022-11-15T13:35:52;15.90;99.90
7762;DHT22;3925;48.636;9.516;2022-11-15T13:38:28;16.00;99.90
7762;DHT22;3925;48.636;9.516;2022-11-15T13:40:58;15.90;99.90
7762;DHT22;3925;48.636;9.516;2022-11-15T13:43:33;15.80;99.90
7762;DHT22;3925;48.636;9.516;2022-11-15T13:46:09;15.80;99.90
7762;DHT22;3925;48.636;9.516;2022-11-15T13:48:37;15.70;99.90
7762;DHT22;3925;48.636;9.516;2022-11-15T13:51:07;15.50;99.90
7762;DHT22;3925;48.636;9.516;2022-11-15T13:53:40;15.50;99.90
7762;DHT22;3925;48.636;9.516;2022-11-15T13:56:08;15.70;99.90
7762;DHT22;3925;48.636;9.516;2022-11-15T13:58:37;15.80;99.90
7762;DHT22;3925;48.636;9.516;2022-11-15T14:01:05;15.80;99.90
7762;DHT22;3925;48.636;9.516;2022-11-15T14:03:37;15.80;99.90
7762;DHT22;3925;48.636;9.516;2022-11-15T14:06:11;15.70;99.90
7762;DHT22;3925;48.636;9.516;2022-11-15T14:08:42;15.80;99.90
7762;DHT22;3925;48.636;9.516;2022-11-15T14:11:24;15.70;99.90
7762;DHT22;3925;48.636;9.516;2022-11-15T14:14:08;15.70;99.90
7762;DHT22;3925;48.636;9.516;2022-11-15T14:16:39;15.70;99.90
7762;DHT22;3925;48.636;9.516;2022-11-15T14:19:10;15.70;99.90
7762;DHT22;3925;48.636;9.516;2022-11-15T14:21:38;15.60;99.90
7762;DHT22;3925;48.636;9.516;2022-11-15T14:24:30;15.50;99.90
7762;DHT22;3925;48.636;9.516;2022-11-15T14:27:19;15.40;99.90
7762;DHT22;3925;48.636;9.516;2022-11-15T14:29:47;15.30;99.90
7762;DHT22;3925;48.636;9.516;2022-11-15T14:32:16;15.30;99.90
7762;DHT22;3925;48.636;9.516;2022-11-15T14:34:44;15.30;99.90
7762;DHT22;3925;48.636;9.516;2022-11-15T14:37:20;15.20;99.90
7762;DHT22;3925;48.636;9.516;2022-11-15T14:39:49;15.10;99.90
7762;DHT22;3925;48.636;9.516;2022-11-15T14:42:16;15.00;99.90
7762;DHT22;3925;48.636;9.516;2022-11-15T14:44:44;14.90;99.90
7762;DHT22;3925;48.636;9.516;2022-11-15T14:47:11;14.70;99.90
7762;DHT22;3925;48.636;9.516;2022-11-15T14:49:37;14.60;99.90
7762;DHT22;3925;48.636;9.516;2022-11-15T14:52:16;14.40;99.90
7762;DHT22;3925;48.636;9.516;2022-11-15T14:54:46;14.30;99.90
7762;DHT22;3925;48.636;9.516;2022-11-15T14:57:14;14.30;99.90
7762;DHT22;3925;48.636;9.516;2022-11-15T14:59:41;14.40;99.90
7762;DHT22;3925;48.636;9.516;2022-11-15T15:02:15;14.40;99.90
7762;DHT22;3925;48.636;9.516;2022-11-15T15:04:42;14.30;99.90
7762;DHT22;3925;48.636;9.516;2022-11-15T15:07:09;14.20;99.90
7762;DHT22;3925;48.636;9.516;2022-11-15T15:09:36;14.10;99.90
7762;DHT22;3925;48.636;9.516;2022-11-15T15:12:03;14.00;99.90
7762;DHT22;3925;48.636;9.516;2022-11-15T15:14:31;14.00;99.90
7762;DHT22;3925;48.636;9.516;2022-11-15T15:16:58;14.00;99.90
7762;DHT22;3925;48.636;9.516;2022-11-15T15:19:25;14.00;99.90
7762;DHT22;3925;48.636;9.516;2022-11-15T15:21:52;14.00;99.90
7762;DHT22;3925;48.636;9.516;2022-11-15T15:24:19;14.00;99.90
7762;DHT22;3925;48.636;9.516;2022-11-15T15:26:46;14.00;99.90
7762;DHT22;3925;48.636;9.516;2022-11-15T15:29:13;14.00;99.90
7762;DHT22;3925;48.636;9.516;2022-11-15T15:31:41;13.90;99.90
7762;DHT22;3925;48.636;9.516;2022-11-15T15:34:08;13.80;99.90
7762;DHT22;3925;48.636;9.516;2022-11-15T15:36:35;13.70;99.90
7762;DHT22;3925;48.636;9.516;2022-11-15T15:39:02;13.60;99.90
7762;DHT22;3925;48.636;9.516;2022-11-15T15:41:29;13.70;99.90
7762;DHT22;3925;48.636;9.516;2022-11-15T15:43:56;13.50;99.90
7762;DHT22;3925;48.636;9.516;2022-11-15T15:46:24;13.40;99.90
7762;DHT22;3925;48.636;9.516;2022-11-15T15:48:53;13.40;99.90
7762;DHT22;3925;48.636;9.516;2022-11-15T15:51:20;13.20;99.90
7762;DHT22;3925;48.636;9.516;2022-11-15T15:53:47;13.30;99.90
7762;DHT22;3925;48.636;9.516;2022-11-15T15:56:16;13.30;99.90
7762;DHT22;3925;48.636;9.516;2022-11-15T15:58:43;13.30;99.90
7762;DHT22;3925;48.636;9.516;2022-11-15T16:01:09;13.30;99.90
7762;DHT22;3925;48.636;9.516;2022-11-15T16:03:36;13.20;99.90
7762;DHT22;3925;48.636;9.516;2022-11-15T16:08:47;13.20;99.90
7762;DHT22;3925;48.636;9.516;2022-11-15T16:11:14;13.20;99.90
7762;DHT22;3925;48.636;9.516;2022-11-15T16:13:41;13.20;99.90
7762;DHT22;3925;48.636;9.516;2022-11-15T16:16:09;13.20;99.90
7762;DHT22;3925;48.636;9.516;2022-11-15T16:18:39;13.30;99.90
7762;DHT22;3925;48.636;9.516;2022-11-15T16:21:08;13.30;99.90
7762;DHT22;3925;48.636;9.516;2022-11-15T16:23:35;13.30;99.90
7762;DHT22;3925;48.636;9.516;2022-11-15T16:26:02;13.30;99.90
7762;DHT22;3925;48.636;9.516;2022-11-15T16:28:33;13.20;99.90
7762;DHT22;3925;48.636;9.516;2022-11-15T16:31:02;13.20;99.90
7762;DHT22;3925;48.636;9.516;2022-11-15T16:33:29;13.20;99.90
7762;DHT22;3925;48.636;9.516;2022-11-15T16:35:56;13.20;99.90
7762;DHT22;3925;48.636;9.516;2022-11-15T16:38:24;13.20;99.90
7762;DHT22;3925;48.636;9.516;2022-11-15T16:40:51;13.20;99.90
7762;DHT22;3925;48.636;9.516;2022-11-15T16:43:18;13.20;99.90
7762;DHT22;3925;48.636;9.516;2022-11-15T16:45:45;13.20;99.90
7762;DHT22;3925;48.636;9.516;2022-11-15T16:48:21;13.20;99.90
7762;DHT22;3925;48.636;9.516;2022-11-15T16:50:50;13.20;99.90
7762;DHT22;3925;48.636;9.516;2022-11-15T16:53:20;13.20;99.90
7762;DHT22;3925;48.636;9.516;2022-11-15T16:55:48;13.20;99.90